X  Zatvori METAR Podaci o vazduhoplovstvu     LYNI Nis Airport
Temperatura
10°C Temperatura
9°C Tačka Rose
94% Vlaga



Vetar
0 KM/H
0 MPH
0 M/S
0 KTS



Tiho
S
Trenutna situacija

Delimično oblačno Delimično oblačno
Vazdušni pritisak 1015.92 (hPa) - 30 (inHg)
Vidljivost 6.2 (Milja) - 10 (km)
Aerodrom
Aerodromski kod. LYNI

Lokacija: Nis Airport
Udaljenost: 63 (km)

Metar:
LYNI 030330Z 00000KT 9999 SCT060 10/09 Q1016 NOSIG

Vreme: 03-10-2022 05:30 CEST